sensor_id;sensor_type;location;lat;lon;timestamp;temperature;humidity
52321;DHT22;38261;54.090;13.382;2023-07-29T00:00:00;16.30;99.90
52321;DHT22;38261;54.090;13.382;2023-07-29T00:01:23;16.30;99.90
52321;DHT22;38261;54.090;13.382;2023-07-29T00:02:45;16.30;99.90
52321;DHT22;38261;54.090;13.382;2023-07-29T00:04:08;16.30;99.90
52321;DHT22;38261;54.090;13.382;2023-07-29T00:05:33;16.30;99.90
52321;DHT22;38261;54.090;13.382;2023-07-29T00:06:55;16.30;99.90
52321;DHT22;38261;54.090;13.382;2023-07-29T00:08:17;16.30;99.90
52321;DHT22;38261;54.090;13.382;2023-07-29T00:09:39;16.30;99.90
52321;DHT22;38261;54.090;13.382;2023-07-29T00:11:02;16.20;99.90
52321;DHT22;38261;54.090;13.382;2023-07-29T00:12:24;16.20;99.90
52321;DHT22;38261;54.090;13.382;2023-07-29T00:13:46;16.20;99.90
52321;DHT22;38261;54.090;13.382;2023-07-29T00:15:09;16.20;99.90
52321;DHT22;38261;54.090;13.382;2023-07-29T00:16:31;16.20;99.90
52321;DHT22;38261;54.090;13.382;2023-07-29T00:17:54;16.20;99.90
52321;DHT22;38261;54.090;13.382;2023-07-29T00:19:16;16.20;99.90
52321;DHT22;38261;54.090;13.382;2023-07-29T00:20:38;16.20;99.90
52321;DHT22;38261;54.090;13.382;2023-07-29T00:22:00;16.20;99.90
52321;DHT22;38261;54.090;13.382;2023-07-29T00:23:22;16.20;99.90
52321;DHT22;38261;54.090;13.382;2023-07-29T00:24:44;16.20;99.90
52321;DHT22;38261;54.090;13.382;2023-07-29T00:26:07;16.20;99.90
52321;DHT22;38261;54.090;13.382;2023-07-29T00:27:29;16.20;99.90
52321;DHT22;38261;54.090;13.382;2023-07-29T00:28:51;16.20;99.90
52321;DHT22;38261;54.090;13.382;2023-07-29T00:30:13;16.20;99.90
52321;DHT22;38261;54.090;13.382;2023-07-29T00:31:35;16.10;99.90
52321;DHT22;38261;54.090;13.382;2023-07-29T00:32:57;16.10;99.90
52321;DHT22;38261;54.090;13.382;2023-07-29T00:34:19;16.10;99.90
52321;DHT22;38261;54.090;13.382;2023-07-29T00:35:42;16.10;99.90
52321;DHT22;38261;54.090;13.382;2023-07-29T00:37:04;16.20;99.90
52321;DHT22;38261;54.090;13.382;2023-07-29T00:38:27;16.10;99.90
52321;DHT22;38261;54.090;13.382;2023-07-29T00:39:50;16.10;99.90
52321;DHT22;38261;54.090;13.382;2023-07-29T00:41:12;16.10;99.90
52321;DHT22;38261;54.090;13.382;2023-07-29T00:42:35;16.10;99.90
52321;DHT22;38261;54.090;13.382;2023-07-29T00:43:57;16.10;99.90
52321;DHT22;38261;54.090;13.382;2023-07-29T00:45:19;16.10;99.90
52321;DHT22;38261;54.090;13.382;2023-07-29T00:46:42;16.10;99.90
52321;DHT22;38261;54.090;13.382;2023-07-29T00:48:05;16.10;99.90
52321;DHT22;38261;54.090;13.382;2023-07-29T00:49:27;16.10;99.90
52321;DHT22;38261;54.090;13.382;2023-07-29T00:50:50;16.10;99.90
52321;DHT22;38261;54.090;13.382;2023-07-29T00:52:12;16.10;99.90
52321;DHT22;38261;54.090;13.382;2023-07-29T00:53:34;16.10;99.90
52321;DHT22;38261;54.090;13.382;2023-07-29T00:54:56;16.10;99.90
52321;DHT22;38261;54.090;13.382;2023-07-29T00:56:18;16.00;99.90
52321;DHT22;38261;54.090;13.382;2023-07-29T00:57:41;16.00;99.90
52321;DHT22;38261;54.090;13.382;2023-07-29T00:59:04;16.00;99.90
52321;DHT22;38261;54.090;13.382;2023-07-29T01:00:26;16.00;99.90
52321;DHT22;38261;54.090;13.382;2023-07-29T01:01:49;16.00;99.90
52321;DHT22;38261;54.090;13.382;2023-07-29T01:03:11;16.00;99.90
52321;DHT22;38261;54.090;13.382;2023-07-29T01:04:34;16.00;99.90
52321;DHT22;38261;54.090;13.382;2023-07-29T01:09:25;16.00;99.90
52321;DHT22;38261;54.090;13.382;2023-07-29T01:11:10;16.00;99.90
52321;DHT22;38261;54.090;13.382;2023-07-29T01:12:50;16.00;99.90
52321;DHT22;38261;54.090;13.382;2023-07-29T01:17:25;16.00;99.90
52321;DHT22;38261;54.090;13.382;2023-07-29T01:18:50;15.90;99.90
52321;DHT22;38261;54.090;13.382;2023-07-29T01:20:15;15.90;99.90
52321;DHT22;38261;54.090;13.382;2023-07-29T01:21:39;15.90;99.90
52321;DHT22;38261;54.090;13.382;2023-07-29T01:23:01;15.90;99.90
52321;DHT22;38261;54.090;13.382;2023-07-29T01:24:23;15.90;99.90
52321;DHT22;38261;54.090;13.382;2023-07-29T01:25:45;15.90;99.90
52321;DHT22;38261;54.090;13.382;2023-07-29T01:27:07;15.90;99.90
52321;DHT22;38261;54.090;13.382;2023-07-29T01:28:30;15.90;99.90
52321;DHT22;38261;54.090;13.382;2023-07-29T01:29:54;15.90;99.90
52321;DHT22;38261;54.090;13.382;2023-07-29T01:33:06;15.80;99.90
52321;DHT22;38261;54.090;13.382;2023-07-29T01:34:39;15.80;99.90
52321;DHT22;38261;54.090;13.382;2023-07-29T01:36:23;15.80;99.90
52321;DHT22;38261;54.090;13.382;2023-07-29T01:37:51;15.80;99.90
52321;DHT22;38261;54.090;13.382;2023-07-29T01:39:14;15.80;99.90
52321;DHT22;38261;54.090;13.382;2023-07-29T01:40:40;15.80;99.90
52321;DHT22;38261;54.090;13.382;2023-07-29T01:42:02;15.80;99.90
52321;DHT22;38261;54.090;13.382;2023-07-29T01:43:24;15.80;99.90
52321;DHT22;38261;54.090;13.382;2023-07-29T01:44:47;15.80;99.90
52321;DHT22;38261;54.090;13.382;2023-07-29T01:46:10;15.80;99.90
52321;DHT22;38261;54.090;13.382;2023-07-29T01:47:33;15.80;99.90
52321;DHT22;38261;54.090;13.382;2023-07-29T01:48:56;15.80;99.90
52321;DHT22;38261;54.090;13.382;2023-07-29T01:50:18;15.80;99.90
52321;DHT22;38261;54.090;13.382;2023-07-29T01:51:40;15.80;99.90
52321;DHT22;38261;54.090;13.382;2023-07-29T01:53:02;15.80;99.90
52321;DHT22;38261;54.090;13.382;2023-07-29T01:54:24;15.80;99.90
52321;DHT22;38261;54.090;13.382;2023-07-29T01:55:47;15.70;99.90
52321;DHT22;38261;54.090;13.382;2023-07-29T01:57:09;15.70;99.90
52321;DHT22;38261;54.090;13.382;2023-07-29T01:58:31;15.70;99.90
52321;DHT22;38261;54.090;13.382;2023-07-29T01:59:53;15.70;99.90
52321;DHT22;38261;54.090;13.382;2023-07-29T02:01:15;15.70;99.90
52321;DHT22;38261;54.090;13.382;2023-07-29T02:02:38;15.70;99.90
52321;DHT22;38261;54.090;13.382;2023-07-29T02:04:00;15.60;99.90
52321;DHT22;38261;54.090;13.382;2023-07-29T02:05:22;15.60;99.90
52321;DHT22;38261;54.090;13.382;2023-07-29T02:06:44;15.60;99.90
52321;DHT22;38261;54.090;13.382;2023-07-29T02:08:06;15.60;99.90
52321;DHT22;38261;54.090;13.382;2023-07-29T02:09:28;15.60;99.90
52321;DHT22;38261;54.090;13.382;2023-07-29T02:10:52;15.60;99.90
52321;DHT22;38261;54.090;13.382;2023-07-29T02:12:15;15.60;99.90
52321;DHT22;38261;54.090;13.382;2023-07-29T02:13:37;15.60;99.90
52321;DHT22;38261;54.090;13.382;2023-07-29T02:14:59;15.60;99.90
52321;DHT22;38261;54.090;13.382;2023-07-29T02:16:21;15.60;99.90
52321;DHT22;38261;54.090;13.382;2023-07-29T02:17:44;15.60;99.90
52321;DHT22;38261;54.090;13.382;2023-07-29T02:19:06;15.60;99.90
52321;DHT22;38261;54.090;13.382;2023-07-29T02:20:29;15.70;99.90
52321;DHT22;38261;54.090;13.382;2023-07-29T02:21:51;15.70;99.90
52321;DHT22;38261;54.090;13.382;2023-07-29T02:23:13;15.70;99.90
52321;DHT22;38261;54.090;13.382;2023-07-29T02:24:35;15.70;99.90
52321;DHT22;38261;54.090;13.382;2023-07-29T02:25:57;15.70;99.90
52321;DHT22;38261;54.090;13.382;2023-07-29T02:27:19;15.70;99.90
52321;DHT22;38261;54.090;13.382;2023-07-29T02:28:41;15.80;99.90
52321;DHT22;38261;54.090;13.382;2023-07-29T02:30:04;15.80;99.90
52321;DHT22;38261;54.090;13.382;2023-07-29T02:31:26;15.80;99.90
52321;DHT22;38261;54.090;13.382;2023-07-29T02:32:48;15.80;99.90
52321;DHT22;38261;54.090;13.382;2023-07-29T02:34:11;15.80;99.90
52321;DHT22;38261;54.090;13.382;2023-07-29T02:35:33;15.80;99.90
52321;DHT22;38261;54.090;13.382;2023-07-29T02:36:55;15.80;99.90
52321;DHT22;38261;54.090;13.382;2023-07-29T02:38:17;15.80;99.90
52321;DHT22;38261;54.090;13.382;2023-07-29T02:39:40;15.80;99.90
52321;DHT22;38261;54.090;13.382;2023-07-29T02:41:02;15.80;99.90
52321;DHT22;38261;54.090;13.382;2023-07-29T02:42:24;15.80;99.90
52321;DHT22;38261;54.090;13.382;2023-07-29T02:43:50;15.80;99.90
52321;DHT22;38261;54.090;13.382;2023-07-29T02:45:12;15.70;99.90
52321;DHT22;38261;54.090;13.382;2023-07-29T02:46:34;15.70;99.90
52321;DHT22;38261;54.090;13.382;2023-07-29T02:47:57;15.70;99.90
52321;DHT22;38261;54.090;13.382;2023-07-29T02:49:19;15.70;99.90
52321;DHT22;38261;54.090;13.382;2023-07-29T02:50:41;15.70;99.90
52321;DHT22;38261;54.090;13.382;2023-07-29T02:52:04;15.60;99.90
52321;DHT22;38261;54.090;13.382;2023-07-29T02:53:26;15.60;99.90
52321;DHT22;38261;54.090;13.382;2023-07-29T02:54:48;15.60;99.90
52321;DHT22;38261;54.090;13.382;2023-07-29T02:56:10;15.60;99.90
52321;DHT22;38261;54.090;13.382;2023-07-29T02:57:33;15.60;99.90
52321;DHT22;38261;54.090;13.382;2023-07-29T02:58:55;15.60;99.90
52321;DHT22;38261;54.090;13.382;2023-07-29T03:00:18;15.60;99.90
52321;DHT22;38261;54.090;13.382;2023-07-29T03:01:40;15.50;99.90
52321;DHT22;38261;54.090;13.382;2023-07-29T03:03:02;15.50;99.90
52321;DHT22;38261;54.090;13.382;2023-07-29T03:04:24;15.60;99.90
52321;DHT22;38261;54.090;13.382;2023-07-29T03:05:46;15.50;99.90
52321;DHT22;38261;54.090;13.382;2023-07-29T03:07:09;15.50;99.90
52321;DHT22;38261;54.090;13.382;2023-07-29T03:08:31;15.50;99.90
52321;DHT22;38261;54.090;13.382;2023-07-29T03:09:53;15.50;99.90
52321;DHT22;38261;54.090;13.382;2023-07-29T03:11:16;15.50;99.90
52321;DHT22;38261;54.090;13.382;2023-07-29T03:12:38;15.50;99.90
52321;DHT22;38261;54.090;13.382;2023-07-29T03:14:00;15.50;99.90
52321;DHT22;38261;54.090;13.382;2023-07-29T03:15:24;15.50;99.90
52321;DHT22;38261;54.090;13.382;2023-07-29T03:16:49;15.50;99.90
52321;DHT22;38261;54.090;13.382;2023-07-29T03:18:11;15.50;99.90
52321;DHT22;38261;54.090;13.382;2023-07-29T03:19:33;15.60;99.90
52321;DHT22;38261;54.090;13.382;2023-07-29T03:20:56;15.60;99.90
52321;DHT22;38261;54.090;13.382;2023-07-29T03:22:18;15.60;99.90
52321;DHT22;38261;54.090;13.382;2023-07-29T03:23:40;15.60;99.90
52321;DHT22;38261;54.090;13.382;2023-07-29T03:25:03;15.70;99.90
52321;DHT22;38261;54.090;13.382;2023-07-29T03:26:27;15.70;99.90
52321;DHT22;38261;54.090;13.382;2023-07-29T03:27:49;15.70;99.90
52321;DHT22;38261;54.090;13.382;2023-07-29T03:29:11;15.70;99.90
52321;DHT22;38261;54.090;13.382;2023-07-29T03:30:34;15.80;99.90
52321;DHT22;38261;54.090;13.382;2023-07-29T03:31:56;15.80;99.90
52321;DHT22;38261;54.090;13.382;2023-07-29T03:33:18;15.80;99.90
52321;DHT22;38261;54.090;13.382;2023-07-29T03:34:40;15.90;99.90
52321;DHT22;38261;54.090;13.382;2023-07-29T03:36:02;15.90;99.90
52321;DHT22;38261;54.090;13.382;2023-07-29T03:37:24;16.00;99.90
52321;DHT22;38261;54.090;13.382;2023-07-29T03:38:46;16.00;99.90
52321;DHT22;38261;54.090;13.382;2023-07-29T03:40:09;16.00;99.90
52321;DHT22;38261;54.090;13.382;2023-07-29T03:41:31;16.10;99.90
52321;DHT22;38261;54.090;13.382;2023-07-29T03:42:53;16.20;99.90
52321;DHT22;38261;54.090;13.382;2023-07-29T03:44:15;16.20;99.90
52321;DHT22;38261;54.090;13.382;2023-07-29T03:45:39;16.30;99.90
52321;DHT22;38261;54.090;13.382;2023-07-29T03:47:01;16.40;99.90
52321;DHT22;38261;54.090;13.382;2023-07-29T03:48:23;16.50;99.90
52321;DHT22;38261;54.090;13.382;2023-07-29T03:49:45;16.50;99.90
52321;DHT22;38261;54.090;13.382;2023-07-29T03:51:07;16.60;99.90
52321;DHT22;38261;54.090;13.382;2023-07-29T03:52:29;16.70;99.90
52321;DHT22;38261;54.090;13.382;2023-07-29T03:53:51;16.80;99.90
52321;DHT22;38261;54.090;13.382;2023-07-29T03:55:13;17.00;99.90
52321;DHT22;38261;54.090;13.382;2023-07-29T03:56:36;17.30;99.90
52321;DHT22;38261;54.090;13.382;2023-07-29T03:57:59;17.70;99.90
52321;DHT22;38261;54.090;13.382;2023-07-29T03:59:22;18.30;99.90
52321;DHT22;38261;54.090;13.382;2023-07-29T04:00:44;18.70;99.90
52321;DHT22;38261;54.090;13.382;2023-07-29T04:02:07;19.00;99.90
52321;DHT22;38261;54.090;13.382;2023-07-29T04:03:29;19.30;99.90
52321;DHT22;38261;54.090;13.382;2023-07-29T04:04:51;19.50;99.90
52321;DHT22;38261;54.090;13.382;2023-07-29T04:06:13;19.60;99.90
52321;DHT22;38261;54.090;13.382;2023-07-29T04:07:36;19.70;99.90
52321;DHT22;38261;54.090;13.382;2023-07-29T04:08:58;19.70;99.90
52321;DHT22;38261;54.090;13.382;2023-07-29T04:10:20;19.70;99.90
52321;DHT22;38261;54.090;13.382;2023-07-29T04:11:42;19.70;99.90
52321;DHT22;38261;54.090;13.382;2023-07-29T04:13:04;19.50;99.90
52321;DHT22;38261;54.090;13.382;2023-07-29T04:14:27;19.30;99.90
52321;DHT22;38261;54.090;13.382;2023-07-29T04:15:49;19.10;99.90
52321;DHT22;38261;54.090;13.382;2023-07-29T04:17:11;19.00;99.90
52321;DHT22;38261;54.090;13.382;2023-07-29T04:18:33;18.80;99.90
52321;DHT22;38261;54.090;13.382;2023-07-29T04:19:55;18.70;99.90
52321;DHT22;38261;54.090;13.382;2023-07-29T04:21:17;18.60;99.90
52321;DHT22;38261;54.090;13.382;2023-07-29T04:22:39;18.50;99.90
52321;DHT22;38261;54.090;13.382;2023-07-29T04:24:01;18.40;99.90
52321;DHT22;38261;54.090;13.382;2023-07-29T04:25:24;18.30;99.90
52321;DHT22;38261;54.090;13.382;2023-07-29T04:26:46;18.20;99.90
52321;DHT22;38261;54.090;13.382;2023-07-29T04:28:08;18.20;99.90
52321;DHT22;38261;54.090;13.382;2023-07-29T04:29:30;18.10;99.90
52321;DHT22;38261;54.090;13.382;2023-07-29T04:30:52;18.10;99.90
52321;DHT22;38261;54.090;13.382;2023-07-29T04:32:14;18.00;99.90
52321;DHT22;38261;54.090;13.382;2023-07-29T04:33:36;18.00;99.90
52321;DHT22;38261;54.090;13.382;2023-07-29T04:34:59;18.00;99.90
52321;DHT22;38261;54.090;13.382;2023-07-29T04:36:21;18.00;99.90
52321;DHT22;38261;54.090;13.382;2023-07-29T04:37:43;17.90;99.90
52321;DHT22;38261;54.090;13.382;2023-07-29T04:39:05;17.90;99.90
52321;DHT22;38261;54.090;13.382;2023-07-29T04:40:27;17.90;99.90
52321;DHT22;38261;54.090;13.382;2023-07-29T04:41:49;17.80;99.90
52321;DHT22;38261;54.090;13.382;2023-07-29T04:43:11;17.80;99.90
52321;DHT22;38261;54.090;13.382;2023-07-29T04:44:33;17.80;99.90
52321;DHT22;38261;54.090;13.382;2023-07-29T04:45:55;17.80;99.90
52321;DHT22;38261;54.090;13.382;2023-07-29T04:47:18;17.80;99.90
52321;DHT22;38261;54.090;13.382;2023-07-29T04:48:40;17.80;99.90
52321;DHT22;38261;54.090;13.382;2023-07-29T04:50:02;17.80;99.90
52321;DHT22;38261;54.090;13.382;2023-07-29T04:51:24;17.80;99.90
52321;DHT22;38261;54.090;13.382;2023-07-29T04:52:46;17.80;99.90
52321;DHT22;38261;54.090;13.382;2023-07-29T04:54:09;17.80;99.90
52321;DHT22;38261;54.090;13.382;2023-07-29T04:55:31;17.80;99.90
52321;DHT22;38261;54.090;13.382;2023-07-29T04:56:53;17.90;99.90
52321;DHT22;38261;54.090;13.382;2023-07-29T04:58:15;17.90;99.90
52321;DHT22;38261;54.090;13.382;2023-07-29T04:59:37;18.00;99.90
52321;DHT22;38261;54.090;13.382;2023-07-29T05:01:00;18.00;99.90
52321;DHT22;38261;54.090;13.382;2023-07-29T05:02:22;18.10;99.90
52321;DHT22;38261;54.090;13.382;2023-07-29T05:03:44;18.20;99.90
52321;DHT22;38261;54.090;13.382;2023-07-29T05:05:06;18.30;99.90
52321;DHT22;38261;54.090;13.382;2023-07-29T05:06:29;18.30;99.90
52321;DHT22;38261;54.090;13.382;2023-07-29T05:07:52;18.50;99.90
52321;DHT22;38261;54.090;13.382;2023-07-29T05:09:15;18.60;99.90
52321;DHT22;38261;54.090;13.382;2023-07-29T05:10:37;18.70;99.90
52321;DHT22;38261;54.090;13.382;2023-07-29T05:12:00;18.80;99.90
52321;DHT22;38261;54.090;13.382;2023-07-29T05:13:22;18.90;99.90
52321;DHT22;38261;54.090;13.382;2023-07-29T05:14:44;19.10;99.90
52321;DHT22;38261;54.090;13.382;2023-07-29T05:16:06;19.20;99.90
52321;DHT22;38261;54.090;13.382;2023-07-29T05:17:28;19.30;99.90
52321;DHT22;38261;54.090;13.382;2023-07-29T05:18:51;19.50;99.90
52321;DHT22;38261;54.090;13.382;2023-07-29T05:20:13;19.70;99.90
52321;DHT22;38261;54.090;13.382;2023-07-29T05:21:35;19.80;99.90
52321;DHT22;38261;54.090;13.382;2023-07-29T05:22:57;20.00;99.90
52321;DHT22;38261;54.090;13.382;2023-07-29T05:24:19;20.20;99.90
52321;DHT22;38261;54.090;13.382;2023-07-29T05:25:41;20.50;99.90
52321;DHT22;38261;54.090;13.382;2023-07-29T05:28:26;21.10;99.90
52321;DHT22;38261;54.090;13.382;2023-07-29T05:29:48;21.50;99.90
52321;DHT22;38261;54.090;13.382;2023-07-29T05:31:10;21.70;99.90
52321;DHT22;38261;54.090;13.382;2023-07-29T05:32:32;21.70;99.90
52321;DHT22;38261;54.090;13.382;2023-07-29T05:33:54;21.70;99.90
52321;DHT22;38261;54.090;13.382;2023-07-29T05:35:17;21.60;99.90
52321;DHT22;38261;54.090;13.382;2023-07-29T05:36:39;21.50;99.90
52321;DHT22;38261;54.090;13.382;2023-07-29T05:38:01;21.50;99.90
52321;DHT22;38261;54.090;13.382;2023-07-29T05:39:25;21.40;99.90
52321;DHT22;38261;54.090;13.382;2023-07-29T05:40:48;21.30;99.90
52321;DHT22;38261;54.090;13.382;2023-07-29T05:42:10;21.30;99.90
52321;DHT22;38261;54.090;13.382;2023-07-29T05:43:32;21.20;99.90
52321;DHT22;38261;54.090;13.382;2023-07-29T05:44:55;21.20;99.90
52321;DHT22;38261;54.090;13.382;2023-07-29T05:46:17;21.10;99.90
52321;DHT22;38261;54.090;13.382;2023-07-29T05:47:39;21.10;99.90
52321;DHT22;38261;54.090;13.382;2023-07-29T05:49:01;21.10;99.90
52321;DHT22;38261;54.090;13.382;2023-07-29T05:50:23;21.10;99.90
52321;DHT22;38261;54.090;13.382;2023-07-29T05:51:45;21.10;99.90
52321;DHT22;38261;54.090;13.382;2023-07-29T05:53:08;21.10;99.90
52321;DHT22;38261;54.090;13.382;2023-07-29T05:54:30;21.10;99.90
52321;DHT22;38261;54.090;13.382;2023-07-29T05:55:52;21.10;99.90
52321;DHT22;38261;54.090;13.382;2023-07-29T05:57:14;21.10;99.90
52321;DHT22;38261;54.090;13.382;2023-07-29T05:58:36;21.10;99.90
52321;DHT22;38261;54.090;13.382;2023-07-29T05:59:58;21.00;99.90
52321;DHT22;38261;54.090;13.382;2023-07-29T06:01:20;21.20;99.90
52321;DHT22;38261;54.090;13.382;2023-07-29T06:02:43;21.30;99.90
52321;DHT22;38261;54.090;13.382;2023-07-29T06:04:06;21.50;99.90
52321;DHT22;38261;54.090;13.382;2023-07-29T06:05:28;21.70;99.90
52321;DHT22;38261;54.090;13.382;2023-07-29T06:06:50;21.80;99.90
52321;DHT22;38261;54.090;13.382;2023-07-29T06:08:12;21.90;99.90
52321;DHT22;38261;54.090;13.382;2023-07-29T06:09:34;21.90;99.90
52321;DHT22;38261;54.090;13.382;2023-07-29T06:10:57;22.20;99.90
52321;DHT22;38261;54.090;13.382;2023-07-29T06:12:19;22.50;99.90
52321;DHT22;38261;54.090;13.382;2023-07-29T06:13:41;23.00;99.90
52321;DHT22;38261;54.090;13.382;2023-07-29T06:15:04;23.30;99.90
52321;DHT22;38261;54.090;13.382;2023-07-29T06:16:27;23.50;99.90
52321;DHT22;38261;54.090;13.382;2023-07-29T06:17:49;23.50;99.90
52321;DHT22;38261;54.090;13.382;2023-07-29T06:19:11;23.40;99.90
52321;DHT22;38261;54.090;13.382;2023-07-29T06:20:35;23.30;99.90
52321;DHT22;38261;54.090;13.382;2023-07-29T06:21:57;23.30;99.90
52321;DHT22;38261;54.090;13.382;2023-07-29T06:23:19;23.40;99.90
52321;DHT22;38261;54.090;13.382;2023-07-29T06:24:42;23.40;99.90
52321;DHT22;38261;54.090;13.382;2023-07-29T06:26:05;23.50;99.90
52321;DHT22;38261;54.090;13.382;2023-07-29T06:27:28;23.60;99.90
52321;DHT22;38261;54.090;13.382;2023-07-29T06:28:50;23.70;99.90
52321;DHT22;38261;54.090;13.382;2023-07-29T06:30:13;23.80;99.90
52321;DHT22;38261;54.090;13.382;2023-07-29T06:31:35;23.80;99.90
52321;DHT22;38261;54.090;13.382;2023-07-29T06:32:57;23.80;99.90
52321;DHT22;38261;54.090;13.382;2023-07-29T06:34:19;23.80;99.90
52321;DHT22;38261;54.090;13.382;2023-07-29T06:35:41;23.80;99.90
52321;DHT22;38261;54.090;13.382;2023-07-29T06:37:03;23.80;99.90
52321;DHT22;38261;54.090;13.382;2023-07-29T06:38:25;23.80;99.90
52321;DHT22;38261;54.090;13.382;2023-07-29T06:39:48;23.90;99.90
52321;DHT22;38261;54.090;13.382;2023-07-29T06:41:10;23.90;99.90
52321;DHT22;38261;54.090;13.382;2023-07-29T06:42:36;23.90;99.90
52321;DHT22;38261;54.090;13.382;2023-07-29T06:43:59;24.00;99.90
52321;DHT22;38261;54.090;13.382;2023-07-29T06:45:21;24.10;99.90
52321;DHT22;38261;54.090;13.382;2023-07-29T06:46:43;24.20;99.90
52321;DHT22;38261;54.090;13.382;2023-07-29T06:48:05;24.20;99.90
52321;DHT22;38261;54.090;13.382;2023-07-29T06:49:27;24.10;99.90
52321;DHT22;38261;54.090;13.382;2023-07-29T06:50:50;24.10;99.90
52321;DHT22;38261;54.090;13.382;2023-07-29T06:52:12;24.00;99.90
52321;DHT22;38261;54.090;13.382;2023-07-29T06:53:34;24.00;99.90
52321;DHT22;38261;54.090;13.382;2023-07-29T06:54:56;24.00;99.90
52321;DHT22;38261;54.090;13.382;2023-07-29T06:56:18;24.00;99.90
52321;DHT22;38261;54.090;13.382;2023-07-29T06:57:40;24.00;99.90
52321;DHT22;38261;54.090;13.382;2023-07-29T06:59:03;24.00;99.90
52321;DHT22;38261;54.090;13.382;2023-07-29T07:00:25;24.10;99.90
52321;DHT22;38261;54.090;13.382;2023-07-29T07:01:47;24.10;99.90
52321;DHT22;38261;54.090;13.382;2023-07-29T07:03:09;24.10;99.90
52321;DHT22;38261;54.090;13.382;2023-07-29T07:04:31;24.20;99.90
52321;DHT22;38261;54.090;13.382;2023-07-29T07:05:53;24.20;99.90
52321;DHT22;38261;54.090;13.382;2023-07-29T07:07:15;24.30;99.90
52321;DHT22;38261;54.090;13.382;2023-07-29T07:08:38;24.30;99.90
52321;DHT22;38261;54.090;13.382;2023-07-29T07:10:00;24.40;99.90
52321;DHT22;38261;54.090;13.382;2023-07-29T07:11:22;24.40;99.90
52321;DHT22;38261;54.090;13.382;2023-07-29T07:12:45;24.50;99.90
52321;DHT22;38261;54.090;13.382;2023-07-29T07:14:07;24.50;99.90
52321;DHT22;38261;54.090;13.382;2023-07-29T07:15:29;24.60;99.90
52321;DHT22;38261;54.090;13.382;2023-07-29T07:16:51;24.70;99.90
52321;DHT22;38261;54.090;13.382;2023-07-29T07:18:13;24.80;99.90
52321;DHT22;38261;54.090;13.382;2023-07-29T07:19:35;24.90;99.90
52321;DHT22;38261;54.090;13.382;2023-07-29T07:20:57;25.00;99.90
52321;DHT22;38261;54.090;13.382;2023-07-29T07:22:19;25.20;99.90
52321;DHT22;38261;54.090;13.382;2023-07-29T07:23:41;25.40;99.90
52321;DHT22;38261;54.090;13.382;2023-07-29T07:25:04;25.40;99.90
52321;DHT22;38261;54.090;13.382;2023-07-29T07:26:29;25.50;99.90
52321;DHT22;38261;54.090;13.382;2023-07-29T07:27:51;25.50;99.90
52321;DHT22;38261;54.090;13.382;2023-07-29T07:29:14;25.60;99.90
52321;DHT22;38261;54.090;13.382;2023-07-29T07:30:39;25.50;99.90
52321;DHT22;38261;54.090;13.382;2023-07-29T07:32:03;25.60;99.90
52321;DHT22;38261;54.090;13.382;2023-07-29T07:33:25;25.50;99.90
52321;DHT22;38261;54.090;13.382;2023-07-29T07:34:47;25.60;99.90
52321;DHT22;38261;54.090;13.382;2023-07-29T07:36:09;25.60;99.90
52321;DHT22;38261;54.090;13.382;2023-07-29T07:37:31;25.70;99.90
52321;DHT22;38261;54.090;13.382;2023-07-29T07:38:54;25.70;99.90
52321;DHT22;38261;54.090;13.382;2023-07-29T07:40:16;25.80;99.90
52321;DHT22;38261;54.090;13.382;2023-07-29T07:41:38;25.80;99.90
52321;DHT22;38261;54.090;13.382;2023-07-29T07:43:00;25.80;99.90
52321;DHT22;38261;54.090;13.382;2023-07-29T07:44:22;25.80;99.90
52321;DHT22;38261;54.090;13.382;2023-07-29T07:45:44;25.90;99.90
52321;DHT22;38261;54.090;13.382;2023-07-29T07:47:07;25.90;99.90
52321;DHT22;38261;54.090;13.382;2023-07-29T07:48:29;26.00;99.90
52321;DHT22;38261;54.090;13.382;2023-07-29T07:49:51;26.00;99.90
52321;DHT22;38261;54.090;13.382;2023-07-29T07:51:13;26.10;99.90
52321;DHT22;38261;54.090;13.382;2023-07-29T07:52:36;26.10;99.90
52321;DHT22;38261;54.090;13.382;2023-07-29T07:53:58;26.10;99.90
52321;DHT22;38261;54.090;13.382;2023-07-29T07:55:20;26.00;99.90
52321;DHT22;38261;54.090;13.382;2023-07-29T07:56:43;26.00;99.90
52321;DHT22;38261;54.090;13.382;2023-07-29T07:58:05;26.00;99.90
52321;DHT22;38261;54.090;13.382;2023-07-29T07:59:27;26.10;99.90
52321;DHT22;38261;54.090;13.382;2023-07-29T08:00:49;26.10;99.90
52321;DHT22;38261;54.090;13.382;2023-07-29T08:02:11;26.00;99.90
52321;DHT22;38261;54.090;13.382;2023-07-29T08:03:34;26.10;99.90
52321;DHT22;38261;54.090;13.382;2023-07-29T08:04:57;26.10;99.90
52321;DHT22;38261;54.090;13.382;2023-07-29T08:06:19;26.10;99.90
52321;DHT22;38261;54.090;13.382;2023-07-29T08:07:41;26.20;99.90
52321;DHT22;38261;54.090;13.382;2023-07-29T08:09:03;26.30;99.90
52321;DHT22;38261;54.090;13.382;2023-07-29T08:10:25;26.30;99.90
52321;DHT22;38261;54.090;13.382;2023-07-29T08:11:47;26.30;99.90
52321;DHT22;38261;54.090;13.382;2023-07-29T08:13:10;26.20;99.90
52321;DHT22;38261;54.090;13.382;2023-07-29T08:14:32;26.20;99.90
52321;DHT22;38261;54.090;13.382;2023-07-29T08:15:55;26.20;99.90
52321;DHT22;38261;54.090;13.382;2023-07-29T08:17:17;26.30;99.90
52321;DHT22;38261;54.090;13.382;2023-07-29T08:18:39;26.40;99.90
52321;DHT22;38261;54.090;13.382;2023-07-29T08:20:01;26.50;99.90
52321;DHT22;38261;54.090;13.382;2023-07-29T08:21:23;26.60;99.90
52321;DHT22;38261;54.090;13.382;2023-07-29T08:22:45;26.80;99.90
52321;DHT22;38261;54.090;13.382;2023-07-29T08:24:08;26.90;99.90
52321;DHT22;38261;54.090;13.382;2023-07-29T08:25:30;27.00;99.90
52321;DHT22;38261;54.090;13.382;2023-07-29T08:26:52;27.10;99.90
52321;DHT22;38261;54.090;13.382;2023-07-29T08:28:14;27.20;99.90
52321;DHT22;38261;54.090;13.382;2023-07-29T08:29:36;27.20;99.90
52321;DHT22;38261;54.090;13.382;2023-07-29T08:30:58;27.20;99.90
52321;DHT22;38261;54.090;13.382;2023-07-29T08:32:21;27.40;99.90
52321;DHT22;38261;54.090;13.382;2023-07-29T08:33:43;27.40;99.90
52321;DHT22;38261;54.090;13.382;2023-07-29T08:35:05;27.30;99.90
52321;DHT22;38261;54.090;13.382;2023-07-29T08:37:50;27.00;99.90
52321;DHT22;38261;54.090;13.382;2023-07-29T08:39:12;26.80;99.90
52321;DHT22;38261;54.090;13.382;2023-07-29T08:40:35;26.70;99.90
52321;DHT22;38261;54.090;13.382;2023-07-29T08:42:03;26.60;99.90
52321;DHT22;38261;54.090;13.382;2023-07-29T08:43:29;26.50;99.90